createdAt,value
2023-03-17T00:03:32.452Z,1463.01
2023-03-17T00:07:32.282Z,1463.01
2023-03-17T00:11:32.481Z,1463.01
2023-03-17T00:15:31.558Z,1463.01
2023-03-17T00:19:31.919Z,1463.01
2023-03-17T00:23:31.903Z,45.2
2023-03-17T00:27:32.186Z,45.2
2023-03-17T00:31:32.796Z,45.2
2023-03-17T00:35:32.251Z,45.2
2023-03-17T00:39:31.667Z,45.2
2023-03-17T00:43:31.476Z,45.2
2023-03-17T00:47:32.998Z,45.2
2023-03-17T00:51:31.769Z,45.2
2023-03-17T00:55:32.196Z,45.2
2023-03-17T00:59:32.031Z,45.2
2023-03-17T01:03:32.432Z,45.2
2023-03-17T01:07:32.760Z,45.2
2023-03-17T01:11:32.197Z,45.2
2023-03-17T01:15:34.592Z,45.2
2023-03-17T01:19:32.459Z,45.2
2023-03-17T01:23:32.238Z,45.2
2023-03-17T01:27:33.759Z,45.2
2023-03-17T01:31:32.078Z,35.68
2023-03-17T01:35:31.653Z,35.68
2023-03-17T01:39:31.638Z,35.68
2023-03-17T01:43:31.852Z,35.68
2023-03-17T01:47:31.947Z,35.68
2023-03-17T01:51:32.073Z,35.68
2023-03-17T01:55:31.734Z,35.68
2023-03-17T01:59:32.024Z,35.68
2023-03-17T02:03:31.801Z,35.68
2023-03-17T02:07:43.836Z,35.68
2023-03-17T02:11:32.025Z,35.68
2023-03-17T02:15:31.785Z,35.68
2023-03-17T02:19:32.121Z,35.68
2023-03-17T02:23:31.952Z,35.68
2023-03-17T02:27:32.281Z,35.68
2023-03-17T02:31:32.523Z,35.68
2023-03-17T02:35:32.124Z,35.68
2023-03-17T02:39:32.058Z,35.68
2023-03-17T02:43:32.010Z,35.68
2023-03-17T02:47:32.344Z,35.68
2023-03-17T02:51:32.057Z,35.68
2023-03-17T02:55:32.277Z,35.68
2023-03-17T02:59:32.189Z,35.68
2023-03-17T03:03:32.843Z,35.68
2023-03-17T03:07:33.381Z,35.68
2023-03-17T03:11:32.483Z,35.68
2023-03-17T03:15:32.411Z,35.68
2023-03-17T03:19:32.352Z,35.68
2023-03-17T03:23:32.323Z,35.68
2023-03-17T03:27:32.195Z,35.68
2023-03-17T03:31:32.906Z,35.68
2023-03-17T03:35:31.780Z,35.68
2023-03-17T03:39:31.667Z,35.68
2023-03-17T03:43:45.709Z,35.68
2023-03-17T03:47:32.669Z,35.68
2023-03-17T03:51:32.215Z,35.68
2023-03-17T03:55:32.216Z,35.68
2023-03-17T03:59:32.062Z,35.68
2023-03-17T04:03:32.265Z,35.68
2023-03-17T04:07:31.898Z,35.68
2023-03-17T04:11:32.121Z,35.68
2023-03-17T04:15:32.245Z,35.68
2023-03-17T04:19:32.903Z,35.68
2023-03-17T04:23:32.511Z,35.68
2023-03-17T04:27:31.696Z,35.68
2023-03-17T04:31:32.091Z,35.68
2023-03-17T04:35:32.388Z,35.68
2023-03-17T04:39:32.402Z,35.68
2023-03-17T04:43:32.625Z,35.68
2023-03-17T04:47:31.599Z,35.68
2023-03-17T04:51:34.412Z,35.68
2023-03-17T04:55:31.631Z,35.68
2023-03-17T04:59:47.072Z,35.68
2023-03-17T05:03:49.108Z,35.68
2023-03-17T05:07:34.042Z,35.68
2023-03-17T05:11:32.626Z,35.68
2023-03-17T05:15:31.514Z,35.68
2023-03-17T05:19:35.152Z,35.68
2023-03-17T05:23:31.696Z,35.68
2023-03-17T05:27:32.364Z,35.68
2023-03-17T05:31:34.065Z,35.68
2023-03-17T05:35:32.430Z,35.68
2023-03-17T05:39:32.346Z,35.68
2023-03-17T05:43:32.330Z,35.68
2023-03-17T05:47:32.768Z,35.68
2023-03-17T05:51:31.618Z,35.68
2023-03-17T05:55:32.197Z,35.68
2023-03-17T05:59:32.254Z,35.68
2023-03-17T06:03:32.838Z,35.68
2023-03-17T06:07:41.350Z,35.68
2023-03-17T06:11:32.158Z,35.68
2023-03-17T06:15:35.082Z,35.68
2023-03-17T06:19:32.549Z,35.68
2023-03-17T06:23:48.992Z,35.68
2023-03-17T06:27:31.736Z,35.68
2023-03-17T06:31:32.372Z,35.68
2023-03-17T06:35:32.002Z,35.68
2023-03-17T06:39:32.865Z,35.68
2023-03-17T06:43:31.486Z,35.68
2023-03-17T06:47:32.071Z,35.68
2023-03-17T06:51:32.106Z,35.68
2023-03-17T06:55:32.659Z,35.68
2023-03-17T06:59:32.366Z,35.68
2023-03-17T07:03:31.852Z,35.68
2023-03-17T07:07:32.091Z,35.68
2023-03-17T07:11:32.091Z,35.68
2023-03-17T07:15:32.619Z,35.68
2023-03-17T07:19:32.074Z,35.68
2023-03-17T07:23:32.536Z,35.68
2023-03-17T07:27:34.510Z,35.68
2023-03-17T07:31:32.663Z,35.68
2023-03-17T07:35:32.620Z,35.68
2023-03-17T07:39:34.510Z,107758
2023-03-17T07:43:31.956Z,107758
2023-03-17T07:47:32.312Z,14214.1
2023-03-17T07:51:32.016Z,14214.1
2023-03-17T07:55:34.004Z,14214.1
2023-03-17T07:59:35.044Z,14214.1
2023-03-17T08:03:53.348Z,14214.1
2023-03-17T08:07:31.701Z,14214.1
2023-03-17T08:11:32.811Z,14214.1
2023-03-17T08:15:32.508Z,14214.1
2023-03-17T08:19:31.514Z,14214.1
2023-03-17T08:23:31.592Z,14214.1
2023-03-17T08:27:34.663Z,14214.1
2023-03-17T08:31:36.328Z,14214.1
2023-03-17T08:35:32.528Z,14214.1
2023-03-17T08:39:31.929Z,14214.1
2023-03-17T08:43:32.322Z,14214.1
2023-03-17T08:47:32.788Z,14214.1
2023-03-17T08:51:35.793Z,31.71
2023-03-17T08:55:32.343Z,32.66
2023-03-17T08:59:32.134Z,6134.7
2023-03-17T09:03:32.396Z,2.42
2023-03-17T09:07:48.263Z,2.15
2023-03-17T09:11:32.312Z,1.02
2023-03-17T09:15:41.259Z,796.16
2023-03-17T09:19:32.220Z,0.73
2023-03-17T09:23:32.308Z,0.58
2023-03-17T09:27:31.998Z,529.36
2023-03-17T09:31:32.797Z,519.51
2023-03-17T09:35:31.938Z,0.37
2023-03-17T09:39:32.307Z,0.27
2023-03-17T09:43:31.955Z,262.09
2023-03-17T09:47:32.616Z,0.24
2023-03-17T09:51:31.744Z,0.22
2023-03-17T09:55:31.785Z,0.22
2023-03-17T09:59:31.573Z,0.22
2023-03-17T10:03:32.744Z,0.19
2023-03-17T10:07:32.443Z,0.19
2023-03-17T10:11:32.159Z,0.18
2023-03-17T10:15:32.296Z,0.16
2023-03-17T10:19:31.981Z,0.15
2023-03-17T10:23:31.869Z,177.56
2023-03-17T10:27:31.815Z,0.15
2023-03-17T10:31:32.536Z,0.14
2023-03-17T10:35:34.403Z,0.15
2023-03-17T10:39:44.801Z,177.56
2023-03-17T10:43:32.255Z,182.2
2023-03-17T10:47:32.713Z,0.19
2023-03-17T10:51:34.589Z,0.12
2023-03-17T10:55:32.446Z,0.12
2023-03-17T10:59:32.540Z,113.97
2023-03-17T11:03:31.475Z,124.46
2023-03-17T11:07:31.536Z,0.12
2023-03-17T11:11:32.636Z,139.44
2023-03-17T11:15:31.764Z,0.15
2023-03-17T11:19:31.790Z,164.15
2023-03-17T11:23:32.001Z,196.59
2023-03-17T11:27:31.923Z,0.2
2023-03-17T11:31:33.921Z,211.75
2023-03-17T11:35:32.200Z,0.22
2023-03-17T11:39:32.153Z,0.21
2023-03-17T11:43:32.245Z,211.75
2023-03-17T11:47:32.110Z,0.23
2023-03-17T11:51:32.202Z,0.25
2023-03-17T11:55:33.902Z,268.15
2023-03-17T11:59:32.054Z,0.28
2023-03-17T12:03:31.895Z,0.3
2023-03-17T12:07:31.819Z,0.3
2023-03-17T12:11:32.729Z,0.31
2023-03-17T12:15:32.444Z,0.32
2023-03-17T12:19:32.401Z,0.32
2023-03-17T12:23:32.330Z,0.32
2023-03-17T12:27:32.243Z,327.23
2023-03-17T12:31:32.337Z,0.3
2023-03-17T12:35:32.794Z,0.28
2023-03-17T12:39:32.060Z,0.27
2023-03-17T12:43:32.250Z,0.27
2023-03-17T12:47:32.552Z,280.57
2023-03-17T12:51:32.684Z,274.31
2023-03-17T12:55:32.877Z,274.31
2023-03-17T12:59:34.092Z,0.25
2023-03-17T13:03:32.256Z,0.28
2023-03-17T13:07:32.224Z,0.28
2023-03-17T13:11:32.409Z,327.23
2023-03-17T13:15:32.799Z,0.31
2023-03-17T13:19:32.193Z,0.31
2023-03-17T13:23:32.233Z,0.29
2023-03-17T13:27:32.203Z,293.39
2023-03-17T13:31:32.917Z,293.39
2023-03-17T13:35:32.061Z,299.95
2023-03-17T13:39:53.464Z,0.28
2023-03-17T13:43:47.402Z,0.28
2023-03-17T13:47:32.842Z,0.29
2023-03-17T13:51:31.898Z,0.3
2023-03-17T13:55:32.443Z,0.3
2023-03-17T13:59:32.007Z,0.29
2023-03-17T14:03:32.048Z,299.95
2023-03-17T14:07:31.943Z,0.28
2023-03-17T14:11:31.903Z,293.39
2023-03-17T14:15:43.064Z,280.57
2023-03-17T14:19:32.084Z,286.93
2023-03-17T14:23:32.090Z,0.28
2023-03-17T14:27:32.112Z,299.95
2023-03-17T14:31:32.556Z,0.29
2023-03-17T14:35:32.927Z,327.23
2023-03-17T14:39:32.488Z,327.23
2023-03-17T14:43:32.220Z,0.32
2023-03-17T14:47:34.761Z,0.34
2023-03-17T14:51:32.578Z,0.35
2023-03-17T14:55:32.719Z,0.35
2023-03-17T14:59:32.315Z,387
2023-03-17T15:03:32.600Z,394.98
2023-03-17T15:07:34.104Z,0.37
2023-03-17T15:11:32.132Z,0.39
2023-03-17T15:15:32.012Z,0.4
2023-03-17T15:19:31.952Z,428.08
2023-03-17T15:23:32.135Z,0.41
2023-03-17T15:27:32.366Z,0.41
2023-03-17T15:31:44.417Z,436.65
2023-03-17T15:35:32.376Z,0.41
2023-03-17T15:39:32.073Z,0.4
2023-03-17T15:43:32.645Z,436.65
2023-03-17T15:47:32.598Z,436.65
2023-03-17T15:51:32.462Z,428.08
2023-03-17T15:55:32.429Z,0.41
2023-03-17T15:59:32.264Z,445.35
2023-03-17T16:03:31.758Z,428.08
2023-03-17T16:07:34.702Z,0.4
2023-03-17T16:11:31.666Z,0.41
2023-03-17T16:15:45.227Z,436.65
2023-03-17T16:19:31.998Z,0.42
2023-03-17T16:23:31.878Z,436.65
2023-03-17T16:27:45.670Z,0.42
2023-03-17T16:31:32.969Z,445.35
2023-03-17T16:35:32.142Z,0.42
2023-03-17T16:39:32.233Z,0.42
2023-03-17T16:43:47.225Z,0.42
2023-03-17T16:47:32.892Z,0.42
2023-03-17T16:51:31.490Z,0.42
2023-03-17T16:55:31.873Z,0.43
2023-03-17T16:59:31.833Z,0.42
2023-03-17T17:03:35.232Z,0.43
2023-03-17T17:07:32.077Z,454.17
2023-03-17T17:11:32.349Z,454.17
2023-03-17T17:15:32.547Z,0.43
2023-03-17T17:19:34.519Z,0.43
2023-03-17T17:23:32.477Z,0.43
2023-03-17T17:27:32.150Z,0.43
2023-03-17T17:31:32.329Z,0.43
2023-03-17T17:35:32.904Z,0.43
2023-03-17T17:39:32.277Z,0.43
2023-03-17T17:43:32.566Z,0.43
2023-03-17T17:47:32.694Z,0.43
2023-03-17T17:51:32.477Z,0.43
2023-03-17T17:55:32.419Z,0.43
2023-03-17T17:59:32.749Z,0.43
2023-03-17T18:03:32.235Z,0.43
2023-03-17T18:07:31.927Z,0.43
2023-03-17T18:11:32.006Z,0.43
2023-03-17T18:15:32.106Z,0.43
2023-03-17T18:19:32.440Z,0.43
2023-03-17T18:23:32.396Z,7.63
2023-03-17T18:27:31.779Z,7.63
2023-03-17T18:31:32.214Z,3.27
2023-03-17T18:35:31.939Z,3.27
2023-03-17T18:39:32.009Z,3.27
2023-03-17T18:43:32.146Z,3.27
2023-03-17T18:47:32.943Z,3.27
2023-03-17T18:51:31.807Z,3.27
2023-03-17T18:55:33.352Z,3.27
2023-03-17T18:59:32.161Z,3.27
2023-03-17T19:03:32.465Z,3.27
2023-03-17T19:07:32.419Z,3.27
2023-03-17T19:11:31.635Z,3.27
2023-03-17T19:15:31.660Z,3.27
2023-03-17T19:19:31.967Z,3.27
2023-03-17T19:23:32.087Z,3.27
2023-03-17T19:27:32.488Z,3.27
2023-03-17T19:31:32.784Z,3.27
2023-03-17T19:35:31.679Z,3.27
2023-03-17T19:39:31.789Z,3.27
2023-03-17T19:43:51.440Z,3.27
2023-03-17T19:47:32.823Z,3.27
2023-03-17T19:51:31.400Z,3.27
2023-03-17T19:55:32.036Z,3.27
2023-03-17T19:59:31.713Z,3.27
2023-03-17T20:03:31.919Z,3.27
2023-03-17T20:07:32.276Z,3.27
2023-03-17T20:11:32.469Z,3.27
2023-03-17T20:15:32.587Z,3.27
2023-03-17T20:19:32.634Z,3.27
2023-03-17T20:23:32.436Z,3.27
2023-03-17T20:27:31.909Z,3.27
2023-03-17T20:31:32.595Z,3.27
2023-03-17T20:35:32.226Z,16.46
2023-03-17T20:39:32.516Z,17945
2023-03-17T20:43:32.422Z,17945
2023-03-17T20:47:33.066Z,17945
2023-03-17T20:51:31.764Z,17945
2023-03-17T20:55:31.491Z,17945
2023-03-17T20:59:31.560Z,17945
2023-03-17T21:03:32.176Z,17945
2023-03-17T21:07:34.010Z,17945
2023-03-17T21:11:32.001Z,17945
2023-03-17T21:15:32.204Z,17945
2023-03-17T21:19:32.334Z,17945
2023-03-17T21:23:32.115Z,17945
2023-03-17T21:27:32.447Z,17945
2023-03-17T21:31:32.584Z,17945
2023-03-17T21:35:32.588Z,17945
2023-03-17T21:39:32.191Z,17945
2023-03-17T21:43:32.736Z,14069.5
2023-03-17T21:47:32.500Z,14069.5
2023-03-17T21:51:35.393Z,14069.5
2023-03-17T21:55:32.628Z,14069.5
2023-03-17T21:59:32.360Z,14069.5
2023-03-17T22:03:35.537Z,14069.5
2023-03-17T22:07:32.252Z,14069.5
2023-03-17T22:11:32.568Z,14069.5
2023-03-17T22:15:31.568Z,14069.5
2023-03-17T22:19:32.785Z,14069.5
2023-03-17T22:23:32.022Z,14069.5
2023-03-17T22:27:34.260Z,14069.5
2023-03-17T22:31:32.227Z,14069.5
2023-03-17T22:35:32.347Z,14069.5
2023-03-17T22:39:32.626Z,14069.5
2023-03-17T22:43:32.361Z,14069.5
2023-03-17T22:47:31.963Z,14069.5
2023-03-17T22:51:31.712Z,14069.5
2023-03-17T22:55:31.980Z,14069.5
2023-03-17T22:59:31.961Z,14069.5
2023-03-17T23:03:32.142Z,14069.5
2023-03-17T23:07:35.559Z,14069.5
2023-03-17T23:11:32.357Z,14069.5
2023-03-17T23:15:32.688Z,14069.5
2023-03-17T23:19:32.194Z,14069.5
2023-03-17T23:23:31.729Z,14069.5
2023-03-17T23:27:31.790Z,14069.5
2023-03-17T23:31:32.648Z,14069.5
2023-03-17T23:35:32.080Z,14069.5
2023-03-17T23:39:32.137Z,14069.5
2023-03-17T23:43:32.316Z,14069.5
2023-03-17T23:47:32.602Z,14069.5
2023-03-17T23:51:31.936Z,14069.5
2023-03-17T23:55:31.961Z,14069.5
2023-03-17T23:59:32.458Z,14069.5
